Observation data for Hart on 07/20/2019      Previous  Date  Next       Current Mesonet Observations  Soil Data  Daily Summary Page  Observations in Plain Language
KHRS 200500Z 17010G16KT 28/13 A2995 RMK A01 T02830134  RH  041%=      5-min Rain = 0
KHRS 200505Z 17011G16KT 28/13 A2996 RMK A01 T02830134  RH  041%=      5-min Rain = 0
KHRS 200510Z 17011G16KT 28/13 A2996 RMK A01 T02830134  RH  041%=      5-min Rain = 0
KHRS 200515Z 17012G17KT 28/13 A2996 RMK A01 T02820133  RH  041%=      5-min Rain = 0
KHRS 200520Z 18012G19KT 28/13 A2995 RMK A01 T02820132  RH  040%=      5-min Rain = 0
KHRS 200525Z 18014G24KT 28/13 A2995 RMK A01 T02840130  RH  039%=      5-min Rain = 0
KHRS 200530Z 18013G22KT 28/13 A2995 RMK A01 T02840130  RH  039%=      5-min Rain = 0
KHRS 200535Z 18013G23KT 28/13 A2995 RMK A01 T02840129  RH  039%=      5-min Rain = 0
KHRS 200540Z 18014G19KT 28/13 A2996 RMK A01 T02840128  RH  039%=      5-min Rain = 0
KHRS 200545Z 18013G19KT 28/13 A2996 RMK A01 T02830127  RH  039%=      5-min Rain = 0
KHRS 200550Z 18013G18KT 28/13 A2996 RMK A01 T02820126  RH  039%=      5-min Rain = 0
KHRS 200555Z 18012G17KT 28/13 A2996 RMK A01 T02800126  RH  039%=      5-min Rain = 0
KHRS 200600Z 18013G18KT 28/13 A2996 RMK A01 T02790125  RH  039%=      5-min Rain = 0
KHRS 200605Z 18012G21KT 28/13 A2996 RMK A01 T02780125  RH  039%=      5-min Rain = 0
KHRS 200610Z 18012G18KT 28/12 A2996 RMK A01 T02770124  RH  039%=      5-min Rain = 0
KHRS 200615Z 18013G20KT 28/12 A2996 RMK A01 T02760123  RH  040%=      5-min Rain = 0
KHRS 200620Z 18014G19KT 28/12 A2996 RMK A01 T02750121  RH  039%=      5-min Rain = 0
KHRS 200625Z 19015G23KT 27/12 A2996 RMK A01 T02740120  RH  039%=      5-min Rain = 0
KHRS 200630Z 18014G21KT 27/12 A2996 RMK A01 T02740119  RH  039%=      5-min Rain = 0
KHRS 200635Z 18013G18KT 27/12 A2996 RMK A01 T02730119  RH  039%=      5-min Rain = 0
KHRS 200640Z 18012G17KT 27/12 A2996 RMK A01 T02710118  RH  039%=      5-min Rain = 0
KHRS 200645Z 19012G19KT 27/12 A2996 RMK A01 T02690119  RH  040%=      5-min Rain = 0
KHRS 200650Z 18013G22KT 27/12 A2996 RMK A01 T02680116  RH  039%=      5-min Rain = 0
KHRS 200655Z 18011G16KT 27/12 A2996 RMK A01 T02690115  RH  039%=      5-min Rain = 0
KHRS 200700Z 18010KT 27/12 A2997 RMK A01 T02670116  RH  040%=      5-min Rain = 0
KHRS 200705Z 19010G17KT 26/12 A2997 RMK A01 T02640116  RH  040%=      5-min Rain = 0
KHRS 200710Z 18011G17KT 26/12 A2997 RMK A01 T02630115  RH  040%=      5-min Rain = 0
KHRS 200715Z 18011G16KT 26/12 A2997 RMK A01 T02630115  RH  041%=      5-min Rain = 0
KHRS 200720Z 19011G17KT 26/12 A2997 RMK A01 T02610116  RH  041%=      5-min Rain = 0
KHRS 200725Z 19011KT 26/12 A2997 RMK A01 T02590116  RH  042%=      5-min Rain = 0
KHRS 200730Z 19010G15KT 26/12 A2997 RMK A01 T02570116  RH  042%=      5-min Rain = 0
KHRS 200735Z 18011G16KT 26/12 A2997 RMK A01 T02560116  RH  042%=      5-min Rain = 0
KHRS 200740Z 18011G16KT 26/12 A2997 RMK A01 T02560116  RH  042%=      5-min Rain = 0
KHRS 200745Z 19012KT 26/12 A2997 RMK A01 T02550117  RH  043%=      5-min Rain = 0
KHRS 200750Z 19012KT 25/12 A2997 RMK A01 T02540117  RH  043%=      5-min Rain = 0
KHRS 200755Z 19011KT 25/12 A2997 RMK A01 T02540118  RH  043%=      5-min Rain = 0
KHRS 200800Z 19012G18KT 25/12 A2997 RMK A01 T02520118  RH  044%=      5-min Rain = 0
KHRS 200805Z 19012KT 25/12 A2997 RMK A01 T02500119  RH  045%=      5-min Rain = 0
KHRS 200810Z 19012KT 25/12 A2997 RMK A01 T02490120  RH  045%=      5-min Rain = 0
KHRS 200815Z 19011KT 25/12 A2997 RMK A01 T02490120  RH  045%=      5-min Rain = 0
KHRS 200820Z 19013G19KT 25/12 A2997 RMK A01 T02490120  RH  045%=      5-min Rain = 0
KHRS 200825Z 19012KT 25/12 A2998 RMK A01 T02480122  RH  046%=      5-min Rain = 0
KHRS 200830Z 19011KT 25/12 A2997 RMK A01 T02470122  RH  046%=      5-min Rain = 0
KHRS 200835Z 19011KT 25/12 A2997 RMK A01 T02460123  RH  047%=      5-min Rain = 0
KHRS 200840Z 19011KT 24/12 A2997 RMK A01 T02440124  RH  048%=      5-min Rain = 0
KHRS 200845Z 19010KT 24/13 A2997 RMK A01 T02420125  RH  049%=      5-min Rain = 0
KHRS 200850Z 20010KT 24/13 A2997 RMK A01 T02400125  RH  050%=      5-min Rain = 0
KHRS 200855Z 20009KT 24/13 A2997 RMK A01 T02370126  RH  051%=      5-min Rain = 0
KHRS 200900Z 20008KT 23/13 A2997 RMK A01 T02340127  RH  052%=      5-min Rain = 0
KHRS 200905Z 20008KT 23/13 A2997 RMK A01 T02310128  RH  053%=      5-min Rain = 0
KHRS 200910Z 20008KT 23/13 A2997 RMK A01 T02290128  RH  054%=      5-min Rain = 0
KHRS 200915Z 20007KT 23/13 A2997 RMK A01 T02270129  RH  055%=      5-min Rain = 0
KHRS 200920Z 20008KT 23/13 A2997 RMK A01 T02250130  RH  056%=      5-min Rain = 0
KHRS 200925Z 20007KT 22/13 A2997 RMK A01 T02230130  RH  057%=      5-min Rain = 0
KHRS 200930Z 20007KT 22/13 A2997 RMK A01 T02220130  RH  057%=      5-min Rain = 0
KHRS 200935Z 19007KT 22/13 A2997 RMK A01 T02220130  RH  057%=      5-min Rain = 0
KHRS 200940Z 19007KT 22/13 A2997 RMK A01 T02220130  RH  057%=      5-min Rain = 0
KHRS 200945Z 19007KT 22/13 A2997 RMK A01 T02210131  RH  058%=      5-min Rain = 0
KHRS 200950Z 19007KT 22/13 A2997 RMK A01 T02190132  RH  059%=      5-min Rain = 0
KHRS 200955Z 19006KT 22/13 A2997 RMK A01 T02190132  RH  059%=      5-min Rain = 0
KHRS 201000Z 19006KT 22/13 A2997 RMK A01 T02190131  RH  059%=      5-min Rain = 0
KHRS 201005Z 19007KT 22/13 A2997 RMK A01 T02190131  RH  058%=      5-min Rain = 0
KHRS 201010Z 19006KT 22/13 A2997 RMK A01 T02190131  RH  059%=      5-min Rain = 0
KHRS 201015Z 18006KT 22/13 A2997 RMK A01 T02180131  RH  059%=      5-min Rain = 0
KHRS 201020Z 19007KT 22/13 A2997 RMK A01 T02180131  RH  059%=      5-min Rain = 0
KHRS 201025Z 19008KT 22/13 A2997 RMK A01 T02190131  RH  059%=      5-min Rain = 0
KHRS 201030Z 19008KT 22/13 A2997 RMK A01 T02200131  RH  058%=      5-min Rain = 0
KHRS 201035Z 19008KT 22/13 A2997 RMK A01 T02170132  RH  060%=      5-min Rain = 0
KHRS 201040Z 19007KT 22/13 A2997 RMK A01 T02170133  RH  060%=      5-min Rain = 0
KHRS 201045Z 19007KT 21/13 A2997 RMK A01 T02130134  RH  062%=      5-min Rain = 0
KHRS 201050Z 19006KT 21/13 A2997 RMK A01 T02100134  RH  063%=      5-min Rain = 0
KHRS 201055Z 20006KT 21/13 A2997 RMK A01 T02060134  RH  065%=      5-min Rain = 0
KHRS 201100Z 20006KT 20/14 A2997 RMK A01 T02040135  RH  066%=      5-min Rain = 0
KHRS 201105Z 20006KT 20/14 A2997 RMK A01 T02020135  RH  067%=      5-min Rain = 0
KHRS 201110Z 19005KT 20/14 A2997 RMK A01 T02000135  RH  067%=      5-min Rain = 0
KHRS 201115Z 19005KT 20/14 A2997 RMK A01 T01990135  RH  068%=      5-min Rain = 0
KHRS 201120Z 19005KT 20/14 A2997 RMK A01 T01970135  RH  069%=      5-min Rain = 0
KHRS 201125Z 18005KT 20/14 A2997 RMK A01 T01960136  RH  070%=      5-min Rain = 0
KHRS 201130Z 18004KT 20/14 A2997 RMK A01 T01960135  RH  069%=      5-min Rain = 0
KHRS 201135Z 18005KT 20/13 A2997 RMK A01 T01990134  RH  068%=      5-min Rain = 0
KHRS 201140Z 17005KT 20/13 A2997 RMK A01 T02020134  RH  066%=      5-min Rain = 0
KHRS 201145Z 17004KT 20/14 A2998 RMK A01 T02020135  RH  067%=      5-min Rain = 0
KHRS 201150Z 18003KT 20/14 A2998 RMK A01 T02010136  RH  068%=      5-min Rain = 0
KHRS 201155Z 19003KT 20/14 A2998 RMK A01 T01970136  RH  069%=      5-min Rain = 0
KHRS 201200Z 17003KT 20/14 A2998 RMK A01 T01950137  RH  070%=      5-min Rain = 0
KHRS 201205Z 16004KT 20/14 A2998 RMK A01 T01950138  RH  071%=      5-min Rain = 0
KHRS 201210Z 16005KT 19/14 A2998 RMK A01 T01940139  RH  072%=      5-min Rain = 0
KHRS 201215Z 16005KT 19/14 A2998 RMK A01 T01940139  RH  072%=      5-min Rain = 0
KHRS 201220Z 18004KT 20/14 A2998 RMK A01 T01970140  RH  071%=      5-min Rain = 0
KHRS 201225Z 18004KT 20/14 A2998 RMK A01 T02000141  RH  070%=      5-min Rain = 0
KHRS 201230Z 18005KT 20/14 A2998 RMK A01 T02030141  RH  069%=      5-min Rain = 0
KHRS 201235Z 18004KT 21/14 A2998 RMK A01 T02060142  RH  068%=      5-min Rain = 0
KHRS 201240Z 17004KT 21/14 A2998 RMK A01 T02100142  RH  067%=      5-min Rain = 0
KHRS 201245Z 18004KT 21/14 A2998 RMK A01 T02130142  RH  065%=      5-min Rain = 0
KHRS 201250Z 19004KT 22/14 A2998 RMK A01 T02170142  RH  064%=      5-min Rain = 0
KHRS 201255Z 19005KT 22/14 A2998 RMK A01 T02200143  RH  063%=      5-min Rain = 0
KHRS 201300Z 18007KT 22/14 A2998 RMK A01 T02230141  RH  061%=      5-min Rain = 0
KHRS 201305Z 18007KT 23/14 A2999 RMK A01 T02250142  RH  060%=      5-min Rain = 0
KHRS 201310Z 18006KT 23/14 A2999 RMK A01 T02280144  RH  060%=      5-min Rain = 0
KHRS 201315Z 17004KT 23/15 A2999 RMK A01 T02310146  RH  060%=      5-min Rain = 0
KHRS 201320Z 17006KT 23/15 A2998 RMK A01 T02330147  RH  060%=      5-min Rain = 0
KHRS 201325Z 18007KT 23/15 A2999 RMK A01 T02340146  RH  059%=      5-min Rain = 0
KHRS 201330Z 18006KT 24/15 A2998 RMK A01 T02370146  RH  058%=      5-min Rain = 0
KHRS 201335Z 18007KT 24/15 A2999 RMK A01 T02390147  RH  058%=      5-min Rain = 0
KHRS 201340Z 19008G13KT 24/15 A2998 RMK A01 T02420147  RH  057%=      5-min Rain = 0
KHRS 201345Z 19010G15KT 24/15 A2999 RMK A01 T02430146  RH  056%=      5-min Rain = 0
KHRS 201350Z 19010KT 24/15 A2999 RMK A01 T02440147  RH  056%=      5-min Rain = 0
KHRS 201355Z 19010KT 25/15 A2998 RMK A01 T02460147  RH  055%=      5-min Rain = 0
KHRS 201400Z 20011KT 25/15 A2999 RMK A01 T02490148  RH  055%=      5-min Rain = 0
KHRS 201405Z 19010G16KT 25/15 A2998 RMK A01 T02510147  RH  054%=      5-min Rain = 0
KHRS 201410Z 19012G18KT 25/15 A2998 RMK A01 T02520147  RH  053%=      5-min Rain = 0
KHRS 201415Z 20013G19KT 25/15 A2998 RMK A01 T02520147  RH  053%=      5-min Rain = 0
KHRS 201420Z 20013KT 26/15 A2998 RMK A01 T02550149  RH  053%=      5-min Rain = 0
KHRS 201425Z 19013KT 26/15 A2998 RMK A01 T02560148  RH  052%=      5-min Rain = 0
KHRS 201430Z 19014KT 26/15 A2998 RMK A01 T02570148  RH  052%=      5-min Rain = 0
KHRS 201435Z 19014KT 26/15 A2998 RMK A01 T02580148  RH  052%=      5-min Rain = 0
KHRS 201440Z 19015KT 26/15 A2998 RMK A01 T02590149  RH  052%=      5-min Rain = 0
KHRS 201445Z 19014KT 26/15 A2998 RMK A01 T02610150  RH  051%=      5-min Rain = 0
KHRS 201450Z 19013KT 26/15 A2998 RMK A01 T02630150  RH  051%=      5-min Rain = 0
KHRS 201455Z 19013G19KT 27/15 A2998 RMK A01 T02650150  RH  050%=      5-min Rain = 0
KHRS 201500Z 19014KT 27/15 A2998 RMK A01 T02680151  RH  050%=      5-min Rain = 0
KHRS 201505Z 19012KT 27/15 A2998 RMK A01 T02700152  RH  050%=      5-min Rain = 0
KHRS 201510Z 19012G18KT 28/15 A2998 RMK A01 T02750154  RH  048%=      5-min Rain = 0
KHRS 201515Z 19013KT 28/15 A2998 RMK A01 T02750152  RH  048%=      5-min Rain = 0
KHRS 201520Z 19012G18KT 28/15 A2998 RMK A01 T02760152  RH  048%=      5-min Rain = 0
KHRS 201525Z 19012KT 28/15 A2998 RMK A01 T02780153  RH  047%=      5-min Rain = 0
KHRS 201530Z 19012G17KT 28/16 A2998 RMK A01 T02790155  RH  048%=      5-min Rain = 0
KHRS 201535Z 19012KT 28/16 A2998 RMK A01 T02830156  RH  047%=      5-min Rain = 0
KHRS 201540Z 19012G17KT 29/16 A2997 RMK A01 T02860156  RH  047%=      5-min Rain = 0
KHRS 201545Z 19014KT 29/16 A2997 RMK A01 T02880156  RH  046%=      5-min Rain = 0
KHRS 201550Z 18013G18KT 29/16 A2997 RMK A01 T02890155  RH  045%=      5-min Rain = 0
KHRS 201555Z 19012G17KT 29/15 A2997 RMK A01 T02920154  RH  044%=      5-min Rain = 0
KHRS 201600Z 19015KT 30/15 A2997 RMK A01 T02960153  RH  043%=      5-min Rain = 0
KHRS 201605Z 19013KT 30/15 A2997 RMK A01 T02960154  RH  043%=      5-min Rain = 0
KHRS 201610Z 19013G18KT 30/15 A2997 RMK A01 T02970153  RH  042%=      5-min Rain = 0
KHRS 201615Z 19014KT 30/15 A2997 RMK A01 T02980152  RH  042%=      5-min Rain = 0
KHRS 201620Z 19014KT 30/15 A2997 RMK A01 T02980153  RH  042%=      5-min Rain = 0
KHRS 201625Z 19012KT 30/16 A2997 RMK A01 T03040155  RH  041%=      5-min Rain = 0
KHRS 201630Z 19013G18KT 31/15 A2997 RMK A01 T03050154  RH  041%=      5-min Rain = 0
KHRS 201635Z 20013G18KT 31/16 A2997 RMK A01 T03060156  RH  041%=      5-min Rain = 0
KHRS 201640Z 18012G18KT 31/16 A2997 RMK A01 T03090155  RH  040%=      5-min Rain = 0
KHRS 201645Z 19012G17KT 31/16 A2997 RMK A01 T03100156  RH  040%=      5-min Rain = 0
KHRS 201650Z 19012G17KT 31/16 A2997 RMK A01 T03110155  RH  040%=      5-min Rain = 0
KHRS 201655Z 20012G17KT 31/16 A2997 RMK A01 T03110157  RH  040%=      5-min Rain = 0
KHRS 201700Z 19012G17KT 32/16 A2997 RMK A01 T03160155  RH  039%=      5-min Rain = 0
KHRS 201705Z 19011KT 32/15 A2997 RMK A01 T03210154  RH  037%=      5-min Rain = 0
KHRS 201710Z 19011KT 32/15 A2997 RMK A01 T03210154  RH  038%=      5-min Rain = 0
KHRS 201715Z 19014KT 32/15 A2997 RMK A01 T03210152  RH  037%=      5-min Rain = 0
KHRS 201720Z 20012G17KT 32/15 A2997 RMK A01 T03220152  RH  037%=      5-min Rain = 0
KHRS 201725Z 19013KT 33/15 A2997 RMK A01 T03250151  RH  036%=      5-min Rain = 0
KHRS 201730Z 19012G17KT 33/15 A2997 RMK A01 T03250152  RH  036%=      5-min Rain = 0
KHRS 201735Z 19014G19KT 33/15 A2997 RMK A01 T03270152  RH  036%=      5-min Rain = 0
KHRS 201740Z 19012KT 33/15 A2996 RMK A01 T03300152  RH  035%=      5-min Rain = 0
KHRS 201745Z 19012G17KT 33/16 A2996 RMK A01 T03340157  RH  035%=      5-min Rain = 0
KHRS 201750Z 20014G19KT 33/15 A2996 RMK A01 T03330151  RH  034%=      5-min Rain = 0
KHRS 201755Z 20013G18KT 34/16 A2996 RMK A01 T03350155  RH  035%=      5-min Rain = 0
KHRS 201800Z 20014G19KT 34/15 A2996 RMK A01 T03350151  RH  034%=      5-min Rain = 0
KHRS 201805Z 20012KT 34/16 A2996 RMK A01 T03390157  RH  034%=      5-min Rain = 0
KHRS 201810Z 19013G18KT 34/15 A2996 RMK A01 T03420153  RH  033%=      5-min Rain = 0
KHRS 201815Z 18012G17KT 34/15 A2996 RMK A01 T03410152  RH  033%=      5-min Rain = 0
KHRS 201820Z 19013G18KT 34/15 A2995 RMK A01 T03440149  RH  032%=      5-min Rain = 0
KHRS 201825Z 19012G19KT 34/15 A2995 RMK A01 T03430150  RH  032%=      5-min Rain = 0
KHRS 201830Z 18013G19KT 34/15 A2995 RMK A01 T03430150  RH  032%=      5-min Rain = 0
KHRS 201835Z 18013G18KT 35/15 A2995 RMK A01 T03460149  RH  032%=      5-min Rain = 0
KHRS 201840Z 18013G18KT 35/15 A2994 RMK A01 T03480149  RH  031%=      5-min Rain = 0
KHRS 201845Z 18012G19KT 35/15 A2994 RMK A01 T03480153  RH  032%=      5-min Rain = 0
KHRS 201850Z 17012G19KT 35/15 A2994 RMK A01 T03490151  RH  031%=      5-min Rain = 0
KHRS 201855Z 17012G17KT 35/15 A2994 RMK A01 T03510152  RH  031%=      5-min Rain = 0
KHRS 201900Z 17013G19KT 35/15 A2994 RMK A01 T03500148  RH  031%=      5-min Rain = 0
KHRS 201905Z 18011G20KT 35/15 A2994 RMK A01 T03510148  RH  030%=      5-min Rain = 0
KHRS 201910Z 18012G17KT 36/15 A2994 RMK A01 T03580147  RH  029%=      5-min Rain = 0
KHRS 201915Z 18011G19KT 36/15 A2994 RMK A01 T03580148  RH  029%=      5-min Rain = 0
KHRS 201920Z 16012KT 36/15 A2994 RMK A01 T03570153  RH  030%=      5-min Rain = 0
KHRS 201925Z 17011G18KT 36/15 A2993 RMK A01 T03580151  RH  030%=      5-min Rain = 0
KHRS 201930Z 16012G17KT 36/15 A2993 RMK A01 T03580146  RH  029%=      5-min Rain = 0
KHRS 201935Z 17012G18KT 36/15 A2993 RMK A01 T03590148  RH  029%=      5-min Rain = 0
KHRS 201940Z 17010G15KT 36/15 A2993 RMK A01 T03620149  RH  029%=      5-min Rain = 0
KHRS 201945Z 16012G20KT 36/15 A2993 RMK A01 T03640148  RH  028%=      5-min Rain = 0
KHRS 201950Z 17012G18KT 36/15 A2993 RMK A01 T03630148  RH  028%=      5-min Rain = 0
KHRS 201955Z 18013G19KT 37/14 A2993 RMK A01 T03660141  RH  027%=      5-min Rain = 0
KHRS 202000Z 18009G16KT 37/14 A2992 RMK A01 T03700143  RH  026%=      5-min Rain = 0
KHRS 202005Z 18012G18KT 37/14 A2992 RMK A01 T03720139  RH  026%=      5-min Rain = 0
KHRS 202010Z 18012KT 37/14 A2992 RMK A01 T03710136  RH  025%=      5-min Rain = 0
KHRS 202015Z 18011G16KT 37/14 A2992 RMK A01 T03700139  RH  026%=      5-min Rain = 0
KHRS 202020Z 18013G19KT 37/13 A2992 RMK A01 T03730133  RH  024%=      5-min Rain = 0
KHRS 202025Z 18013G19KT 37/14 A2992 RMK A01 T03700135  RH  025%=      5-min Rain = 0
KHRS 202030Z 18012G18KT 37/14 A2992 RMK A01 T03720137  RH  025%=      5-min Rain = 0
KHRS 202035Z 16013G18KT 37/14 A2991 RMK A01 T03710142  RH  026%=      5-min Rain = 0
KHRS 202040Z 16011G19KT 37/14 A2991 RMK A01 T03670143  RH  027%=      5-min Rain = 0
KHRS 202045Z 17011G17KT 37/14 A2991 RMK A01 T03700141  RH  026%=      5-min Rain = 0
KHRS 202050Z 18013G19KT 37/14 A2991 RMK A01 T03730137  RH  025%=      5-min Rain = 0
KHRS 202055Z 17013G19KT 37/13 A2991 RMK A01 T03730132  RH  024%=      5-min Rain = 0
KHRS 202100Z 16013G21KT 37/14 A2991 RMK A01 T03720138  RH  025%=      5-min Rain = 0
KHRS 202105Z 16013G19KT 37/14 A2991 RMK A01 T03710139  RH  026%=      5-min Rain = 0
KHRS 202110Z 16012G18KT 37/14 A2991 RMK A01 T03720140  RH  026%=      5-min Rain = 0
KHRS 202115Z 17011G18KT 37/13 A299 RMK A01 T03740130  RH  024%=      5-min Rain = 0
KHRS 202120Z 16013G18KT 37/13 A299 RMK A01 T03730134  RH  025%=      5-min Rain = 0
KHRS 202125Z 16015G20KT 37/13 A299 RMK A01 T03700133  RH  025%=      5-min Rain = 0
KHRS 202130Z 16013G20KT 37/14 A299 RMK A01 T03700137  RH  026%=      5-min Rain = 0
KHRS 202135Z 17014G22KT 37/13 A299 RMK A01 T03700133  RH  025%=      5-min Rain = 0
KHRS 202140Z 17013G19KT 37/13 A2989 RMK A01 T03730127  RH  023%=      5-min Rain = 0
KHRS 202145Z 16013G20KT 37/13 A2989 RMK A01 T03730133  RH  024%=      5-min Rain = 0
KHRS 202150Z 16013G21KT 37/13 A2989 RMK A01 T03740130  RH  024%=      5-min Rain = 0
KHRS 202155Z 17011G16KT 38/13 A2989 RMK A01 T03760130  RH  024%=      5-min Rain = 0
KHRS 202200Z 15012KT 38/13 A2989 RMK A01 T03760132  RH  024%=      5-min Rain = 0
KHRS 202205Z 17012G21KT 37/13 A2989 RMK A01 T03740129  RH  024%=      5-min Rain = 0
KHRS 202210Z 16011G17KT 38/14 A2989 RMK A01 T03770136  RH  024%=      5-min Rain = 0
KHRS 202215Z 16012G17KT 38/13 A2988 RMK A01 T03750133  RH  024%=      5-min Rain = 0
KHRS 202220Z 16010G15KT 38/14 A2988 RMK A01 T03750138  RH  025%=      5-min Rain = 0
KHRS 202225Z 16012G18KT 38/13 A2988 RMK A01 T03760134  RH  024%=      5-min Rain = 0
KHRS 202230Z 16013G20KT 37/13 A2988 RMK A01 T03730132  RH  024%=      5-min Rain = 0
KHRS 202235Z 16011G16KT 37/13 A2988 RMK A01 T03720133  RH  024%=      5-min Rain = 0
KHRS 202240Z 16011G18KT 37/14 A2988 RMK A01 T03740139  RH  025%=      5-min Rain = 0
KHRS 202245Z 16013G18KT 37/14 A2988 RMK A01 T03710135  RH  025%=      5-min Rain = 0
KHRS 202250Z 16011G18KT 37/14 A2988 RMK A01 T03730136  RH  025%=      5-min Rain = 0
KHRS 202255Z 17010G15KT 37/13 A2988 RMK A01 T03730130  RH  024%=      5-min Rain = 0
KHRS 202300Z 16010G20KT 37/14 A2987 RMK A01 T03740136  RH  025%=      5-min Rain = 0
KHRS 202305Z 18012G19KT 37/13 A2987 RMK A01 T03740127  RH  023%=      5-min Rain = 0
KHRS 202310Z 16010G15KT 37/14 A2987 RMK A01 T03730136  RH  025%=      5-min Rain = 0
KHRS 202315Z 16011G17KT 37/14 A2987 RMK A01 T03710136  RH  025%=      5-min Rain = 0
KHRS 202320Z 16012G18KT 37/14 A2987 RMK A01 T03680138  RH  026%=      5-min Rain = 0
KHRS 202325Z 16012G18KT 37/14 A2987 RMK A01 T03660140  RH  027%=      5-min Rain = 0
KHRS 202330Z 15009G14KT 37/14 A2987 RMK A01 T03650144  RH  027%=      5-min Rain = 0
KHRS 202335Z 16009G16KT 37/15 A2987 RMK A01 T03660147  RH  028%=      5-min Rain = 0
KHRS 202340Z 16011G16KT 37/14 A2987 RMK A01 T03650142  RH  027%=      5-min Rain = 0
KHRS 202345Z 16011G18KT 36/14 A2987 RMK A01 T03630141  RH  027%=      5-min Rain = 0
KHRS 202350Z 16011G16KT 36/14 A2986 RMK A01 T03610140  RH  027%=      5-min Rain = 0
KHRS 202355Z 15011G16KT 36/14 A2986 RMK A01 T03610143  RH  028%=      5-min Rain = 0
KHRS 210000Z 16010G16KT 36/15 A2986 RMK A01 T03600145  RH  028%=      5-min Rain = 0
KHRS 210005Z 16011G16KT 36/14 A2986 RMK A01 T03590141  RH  028%=      5-min Rain = 0
KHRS 210010Z 15011G16KT 36/14 A2986 RMK A01 T03570143  RH  028%=      5-min Rain = 0
KHRS 210015Z 16010G16KT 36/15 A2986 RMK A01 T03550145  RH  029%=      5-min Rain = 0
KHRS 210020Z 16011KT 35/14 A2986 RMK A01 T03540144  RH  029%=      5-min Rain = 0
KHRS 210025Z 15010G16KT 35/15 A2986 RMK A01 T03520146  RH  030%=      5-min Rain = 0
KHRS 210030Z 15010G17KT 35/15 A2986 RMK A01 T03520145  RH  030%=      5-min Rain = 0
KHRS 210035Z 15010G15KT 35/14 A2986 RMK A01 T03510144  RH  030%=      5-min Rain = 0
KHRS 210040Z 15010G17KT 35/14 A2986 RMK A01 T03490142  RH  030%=      5-min Rain = 0
KHRS 210045Z 15009G16KT 35/14 A2986 RMK A01 T03470142  RH  030%=      5-min Rain = 0
KHRS 210050Z 15010G17KT 35/14 A2987 RMK A01 T03460141  RH  030%=      5-min Rain = 0
KHRS 210055Z 15009G14KT 34/14 A2987 RMK A01 T03440143  RH  031%=      5-min Rain = 0
KHRS 210100Z 15009G15KT 34/14 A2987 RMK A01 T03410144  RH  031%=      5-min Rain = 0
KHRS 210105Z 15009G14KT 34/14 A2987 RMK A01 T03380143  RH  032%=      5-min Rain = 0
KHRS 210110Z 15008G13KT 34/14 A2987 RMK A01 T03360143  RH  032%=      5-min Rain = 0
KHRS 210115Z 15009KT 33/14 A2987 RMK A01 T03340144  RH  033%=      5-min Rain = 0
KHRS 210120Z 15008KT 33/15 A2988 RMK A01 T03310145  RH  033%=      5-min Rain = 0
KHRS 210125Z 15007G12KT 33/15 A2988 RMK A01 T03280147  RH  034%=      5-min Rain = 0
KHRS 210130Z 15008KT 33/15 A2988 RMK A01 T03260146  RH  034%=      5-min Rain = 0
KHRS 210135Z 15007KT 32/15 A2988 RMK A01 T03240146  RH  035%=      5-min Rain = 0
KHRS 210140Z 15007G13KT 32/15 A2988 RMK A01 T03210146  RH  035%=      5-min Rain = 0
KHRS 210145Z 15007KT 32/15 A2988 RMK A01 T03180146  RH  036%=      5-min Rain = 0
KHRS 210150Z 15007KT 32/15 A2988 RMK A01 T03150147  RH  037%=      5-min Rain = 0
KHRS 210155Z 15007KT 31/15 A2988 RMK A01 T03110148  RH  038%=      5-min Rain = 0
KHRS 210200Z 15007KT 31/15 A2988 RMK A01 T03070149  RH  039%=      5-min Rain = 0
KHRS 210205Z 15007KT 30/15 A2988 RMK A01 T03030150  RH  040%=      5-min Rain = 0
KHRS 210210Z 15006G11KT 30/15 A2988 RMK A01 T03000150  RH  041%=      5-min Rain = 0
KHRS 210215Z 15006KT 30/15 A2988 RMK A01 T02980150  RH  042%=      5-min Rain = 0
KHRS 210220Z 15007KT 29/15 A2988 RMK A01 T02940151  RH  043%=      5-min Rain = 0
KHRS 210225Z 14007KT 29/15 A2988 RMK A01 T02900152  RH  044%=      5-min Rain = 0
KHRS 210230Z 14008KT 29/15 A2989 RMK A01 T02880152  RH  045%=      5-min Rain = 0
KHRS 210235Z 14007KT 29/15 A2989 RMK A01 T02860152  RH  045%=      5-min Rain = 0
KHRS 210240Z 14007KT 28/15 A2989 RMK A01 T02830153  RH  046%=      5-min Rain = 0
KHRS 210245Z 14007KT 28/15 A2989 RMK A01 T02820152  RH  046%=      5-min Rain = 0
KHRS 210250Z 14007KT 28/15 A2989 RMK A01 T02810151  RH  046%=      5-min Rain = 0
KHRS 210255Z 14008KT 28/15 A2989 RMK A01 T02790151  RH  047%=      5-min Rain = 0
KHRS 210300Z 14007KT 28/15 A299 RMK A01 T02760151  RH  047%=      5-min Rain = 0
KHRS 210305Z 14007KT 28/15 A299 RMK A01 T02750151  RH  048%=      5-min Rain = 0
KHRS 210310Z 14007KT 27/15 A299 RMK A01 T02730150  RH  048%=      5-min Rain = 0
KHRS 210315Z 14007KT 27/15 A299 RMK A01 T02720150  RH  048%=      5-min Rain = 0
KHRS 210320Z 14007KT 27/15 A2991 RMK A01 T02710149  RH  048%=      5-min Rain = 0
KHRS 210325Z 14007KT 27/15 A2991 RMK A01 T02700147  RH  048%=      5-min Rain = 0
KHRS 210330Z 14007KT 27/15 A2991 RMK A01 T02710146  RH  047%=      5-min Rain = 0
KHRS 210335Z 14007KT 27/15 A2992 RMK A01 T02690146  RH  048%=      5-min Rain = 0
KHRS 210340Z 14006KT 27/15 A2992 RMK A01 T02670145  RH  048%=      5-min Rain = 0
KHRS 210345Z 14006KT 27/15 A2992 RMK A01 T02650145  RH  049%=      5-min Rain = 0
KHRS 210350Z 14006KT 26/15 A2993 RMK A01 T02630145  RH  049%=      5-min Rain = 0
KHRS 210355Z 14006KT 26/15 A2993 RMK A01 T02610145  RH  050%=      5-min Rain = 0
KHRS 210400Z 13005KT 26/15 A2993 RMK A01 T02590146  RH  051%=      5-min Rain = 0
KHRS 210405Z 13005KT 26/15 A2993 RMK A01 T02560146  RH  052%=      5-min Rain = 0
KHRS 210410Z 12007KT 25/15 A2994 RMK A01 T02520147  RH  053%=      5-min Rain = 0
KHRS 210415Z 12008KT 25/15 A2994 RMK A01 T02520145  RH  053%=      5-min Rain = 0
KHRS 210420Z 13010KT 26/14 A2994 RMK A01 T02590141  RH  049%=      5-min Rain = 0
KHRS 210425Z 13009KT 26/14 A2994 RMK A01 T02640141  RH  048%=      5-min Rain = 0
KHRS 210430Z 13009KT 26/14 A2994 RMK A01 T02640142  RH  048%=      5-min Rain = 0
KHRS 210435Z 13009KT 26/14 A2994 RMK A01 T02630142  RH  048%=      5-min Rain = 0
KHRS 210440Z 14009KT 26/14 A2994 RMK A01 T02640142  RH  048%=      5-min Rain = 0
KHRS 210445Z 13008KT 26/14 A2994 RMK A01 T02630143  RH  049%=      5-min Rain = 0
KHRS 210450Z 13007KT 26/14 A2994 RMK A01 T02600144  RH  050%=      5-min Rain = 0
KHRS 210455Z 14006KT 26/15 A2994 RMK A01 T02560145  RH  051%=      5-min Rain = 0

Page generated in 0.0167 seconds.